Airfield :
LOGIN :

Register | Disclaimer

   EN    FR    IT 

 










Legend :    VFR   Marginal VFR   IFR   Intensive IFR   Very Intensive IFR
Visi :
Ceiling :
>= 8 km
>= 3000ft
5 to 8 km
1000 to 3000 ft
1500m to 5 km
500 to 1000 ft
800 to 1500m
200 to 500 ft
< 800m
< 200 ft
Symbols :   Thunderstorms  Fog  Heavy snow  Heavy precipitations  Wind > 20 kt
SIGMETs :     Misc.  Thunderstorms  Icing  Turbulence  Mountain Waves  Volcanic Ashes






- Airport Elevation : 272 ft
- IATA code : MXN


LFRU - Morlaix-Ploujean

CURRENT METAR :
  • 271400Z AUTO 34014KT 9999 BKN038 09/04 Q1011

EXPIRED METARs :
  • 271330Z AUTO 34015KT 9999 SCT032 BKN038 09/03 Q1010
  • 271300Z AUTO 34016KT 310V010 9999 SCT028 BKN036 09/03 Q1010
  • 271230Z AUTO 34017KT 9999 FEW021 SCT031 BKN037 08/03 Q1009
  • 271200Z AUTO 33017KT 9999 FEW025 OVC033 08/04 Q1008
  • 271130Z AUTO 33017KT 9999 FEW023 OVC032 08/04 Q1007
  • 271100Z AUTO 33016KT 9999 BKN021 BKN027 OVC033 08/04 Q1006

TAF N/A



MET'MAP, your aeronautical weather chart ! - Copyright ORBIFLY December 2007 - Disclaimer

ORBIFLY MET'MAP TEAM :

Programming & Development : Alexandra Zaïnal
Concept & original design : Baudouin d'Aumeries
Assistance for programming : Marc-Olivier Méhu
Technical & hardware support : Manuel Goepfert

Contact : metmap@orbifly.com




SOURCES & CREDITS :

   NOAA